Time;durP1;ratioP1;P1;durP2;ratioP2;P2;SDS_P1;SDS_P2;PMS_P1;PMS_P2;Temp;Humidity;BMP_temperature;BMP_pressure;BME280_temperature;BME280_humidity;BME280_pressure;Samples;Min_cycle;Max_cycle;Signal;HPM_P1;HPM_P2
2023/07/22 00:00:40;;;;;;;5.60;1.37;;;;;;;25.19;55.16;97426.50;5090068;28;20227;-28
2023/07/22 00:03:07;;;;;;;1.20;1.10;;;;;;;25.19;55.35;97425.66;5095883;28;20599;-29
2023/07/22 00:05:33;;;;;;;1.50;1.40;;;;;;;25.18;55.51;97432.50;5096043;28;20215;-27
2023/07/22 00:08:00;;;;;;;1.10;0.97;;;;;;;25.20;55.55;97430.81;5088772;28;20578;-27
2023/07/22 00:10:27;;;;;;;1.13;1.10;;;;;;;25.19;55.61;97425.66;5095525;28;20199;-42
2023/07/22 00:12:53;;;;;;;2.30;1.30;;;;;;;25.19;55.54;97436.78;5094492;28;20692;-27
2023/07/22 00:15:22;;;;;;;1.00;1.00;;;;;;;25.19;55.30;97431.63;5092702;28;20206;-28
2023/07/22 00:17:48;;;;;;;1.00;1.00;;;;;;;25.14;55.63;97423.84;5093027;28;20574;-27
2023/07/22 00:20:16;;;;;;;1.10;1.10;;;;;;;25.14;55.34;97425.59;5093770;28;20601;-29
2023/07/22 00:22:42;;;;;;;1.23;1.13;;;;;;;25.19;55.53;97425.66;5095562;28;20341;-27
2023/07/22 00:25:10;;;;;;;1.07;1.07;;;;;;;25.17;55.46;97416.19;5091375;28;20268;-28
2023/07/22 00:27:38;;;;;;;1.37;1.27;;;;;;;25.18;55.35;97419.63;5096136;28;20234;-30
2023/07/22 00:30:06;;;;;;;1.17;1.07;;;;;;;25.19;55.32;97415.38;5095944;28;20249;-27
2023/07/22 00:32:33;;;;;;;1.00;1.00;;;;;;;25.19;55.54;97411.06;5095677;28;20254;-28
2023/07/22 00:34:59;;;;;;;1.30;1.23;;;;;;;25.19;55.53;97410.22;5095244;28;20204;-28
2023/07/22 00:37:26;;;;;;;1.20;1.10;;;;;;;25.18;55.67;97406.78;5095612;28;20204;-28
2023/07/22 00:39:53;;;;;;;1.07;1.07;;;;;;;25.19;55.56;97405.91;5095312;28;20200;-27
2023/07/22 00:42:20;;;;;;;1.27;1.17;;;;;;;25.20;55.23;97406.78;5095320;28;20199;-27
2023/07/22 00:44:47;;;;;;;1.27;1.17;;;;;;;25.20;55.34;97409.38;5095159;28;20223;-28
2023/07/22 00:47:13;;;;;;;1.03;1.00;;;;;;;25.19;55.22;97408.50;5095243;28;20658;-28
2023/07/22 00:49:40;;;;;;;0.90;0.90;;;;;;;25.19;55.69;97405.91;5093748;28;20208;-28
2023/07/22 00:52:07;;;;;;;1.03;0.93;;;;;;;25.19;55.67;97405.91;5094217;28;20281;-28
2023/07/22 00:54:33;;;;;;;1.20;1.10;;;;;;;25.19;55.73;97398.19;5095353;28;20273;-27
2023/07/22 00:57:00;;;;;;;1.27;1.20;;;;;;;25.19;55.56;97394.78;5093796;28;20211;-28
2023/07/22 00:59:27;;;;;;;1.13;1.10;;;;;;;25.20;55.75;97396.50;5094998;28;20200;-27
2023/07/22 01:01:53;;;;;;;1.30;1.20;;;;;;;25.17;55.28;97395.59;5079757;28;20203;-28
2023/07/22 01:04:22;;;;;;;1.07;1.07;;;;;;;25.19;55.43;97390.47;5093159;28;20220;-28
2023/07/22 01:06:49;;;;;;;1.23;1.13;;;;;;;25.19;55.51;97384.50;5088780;28;20207;-27
2023/07/22 01:09:15;;;;;;;1.10;1.00;;;;;;;25.18;55.43;97383.63;5095215;28;20196;-27
2023/07/22 01:11:42;;;;;;;1.10;1.10;;;;;;;25.17;55.61;97379.34;5093401;28;20606;-27
2023/07/22 01:14:09;;;;;;;0.97;0.97;;;;;;;25.19;55.51;97382.75;5090911;28;20207;-27
2023/07/22 01:16:36;;;;;;;1.10;1.10;;;;;;;25.19;55.27;97381.94;5094559;28;20207;-30
2023/07/22 01:19:04;;;;;;;1.30;1.20;;;;;;;25.17;55.38;97373.31;5094088;28;20196;-27
2023/07/22 01:21:31;;;;;;;0.93;0.93;;;;;;;25.17;55.33;97378.47;5093117;28;20287;-28
2023/07/22 01:23:57;;;;;;;1.30;1.10;;;;;;;25.19;55.63;97382.75;5073898;28;20211;-27
2023/07/22 01:26:24;;;;;;;0.90;0.90;;;;;;;25.19;55.32;97381.94;5069477;28;20227;-28
2023/07/22 01:28:51;;;;;;;1.30;1.20;;;;;;;25.20;55.64;97387.09;5093878;28;20212;-28
2023/07/22 01:31:17;;;;;;;1.00;1.00;;;;;;;25.19;55.27;97389.63;5093030;28;20200;-27
2023/07/22 01:33:44;;;;;;;1.30;1.20;;;;;;;25.20;55.48;97389.66;5094758;28;20226;-27
2023/07/22 01:36:12;;;;;;;1.30;1.20;;;;;;;25.20;55.37;97388.78;5086607;28;20207;-28
2023/07/22 01:38:39;;;;;;;0.97;0.97;;;;;;;25.19;55.73;97390.47;5094393;28;20235;-27
2023/07/22 01:41:05;;;;;;;1.50;1.20;;;;;;;25.19;55.45;97398.19;5088581;28;20196;-27
2023/07/22 01:43:32;;;;;;;1.40;1.30;;;;;;;25.18;55.74;97393.91;5094025;28;20281;-33
2023/07/22 01:45:59;;;;;;;1.20;1.10;;;;;;;25.19;55.81;97405.91;5093362;28;20200;-28
2023/07/22 01:48:25;;;;;;;1.00;1.00;;;;;;;25.20;55.69;97406.78;5094894;28;20200;-28
2023/07/22 01:50:52;;;;;;;1.10;1.10;;;;;;;25.19;55.63;97405.91;5094372;28;20200;-28
2023/07/22 01:53:18;;;;;;;1.20;1.10;;;;;;;25.19;55.37;97411.06;5094717;28;20215;-28
2023/07/22 01:55:45;;;;;;;1.13;1.10;;;;;;;25.20;55.50;97410.25;5093895;28;20204;-28
2023/07/22 01:58:12;;;;;;;1.00;1.00;;;;;;;25.20;55.42;97406.78;5094218;28;20195;-27
2023/07/22 02:00:39;;;;;;;0.90;0.90;;;;;;;25.20;55.74;97406.78;5094257;28;20607;-29
2023/07/22 02:03:05;;;;;;;1.00;1.00;;;;;;;25.20;55.69;97404.22;5091147;28;20220;-27
2023/07/22 02:05:32;;;;;;;1.00;1.00;;;;;;;25.20;55.81;97401.66;5093802;28;20227;-28
2023/07/22 02:07:58;;;;;;;1.40;1.30;;;;;;;25.20;55.32;97399.06;5092275;28;20265;-27
2023/07/22 02:10:25;;;;;;;1.13;1.10;;;;;;;25.19;55.38;97400.78;5089619;28;20273;-28
2023/07/22 02:12:52;;;;;;;1.20;1.10;;;;;;;25.20;55.32;97405.09;5093097;28;20212;-28
2023/07/22 02:15:19;;;;;;;1.20;1.10;;;;;;;25.19;55.33;97400.78;5093324;28;20264;-29
2023/07/22 02:17:45;;;;;;;1.00;1.00;;;;;;;25.19;55.46;97400.78;5093005;28;20210;-28
2023/07/22 02:20:12;;;;;;;1.20;1.10;;;;;;;25.20;55.33;97399.06;5091060;28;20206;-28
2023/07/22 02:22:39;;;;;;;1.20;1.20;;;;;;;25.19;55.70;97403.34;5093397;28;20247;-28
2023/07/22 02:25:06;;;;;;;1.17;1.07;;;;;;;25.19;55.32;97403.34;5087434;28;20280;-26
2023/07/22 02:27:33;;;;;;;1.10;1.00;;;;;;;25.20;55.46;97407.66;5089809;28;20200;-28
2023/07/22 02:29:59;;;;;;;1.30;1.20;;;;;;;25.20;55.80;97409.38;5093265;28;20204;-28
2023/07/22 02:32:26;;;;;;;1.03;1.03;;;;;;;25.19;55.72;97399.94;5089674;28;20571;-28
2023/07/22 02:34:52;;;;;;;0.80;0.80;;;;;;;25.17;55.75;97400.75;5093790;28;20593;-27
2023/07/22 02:37:19;;;;;;;1.03;1.03;;;;;;;25.20;55.44;97406.78;5093464;28;20227;-28
2023/07/22 02:39:46;;;;;;;1.13;1.10;;;;;;;25.20;55.84;97402.53;5092878;28;20249;-29
2023/07/22 02:42:12;;;;;;;0.90;0.90;;;;;;;25.20;55.38;97409.38;5093089;28;20252;-28
2023/07/22 02:44:39;;;;;;;1.23;1.10;;;;;;;25.19;55.89;97403.34;5092934;28;20220;-28
2023/07/22 02:47:05;;;;;;;1.30;1.20;;;;;;;25.20;55.78;97402.53;5092916;28;20191;-28
2023/07/22 02:49:32;;;;;;;1.20;1.10;;;;;;;25.19;55.54;97405.91;5092205;28;20199;-28
2023/07/22 02:51:58;;;;;;;0.97;0.97;;;;;;;25.20;55.78;97404.22;5085263;28;20204;-27
2023/07/22 02:54:25;;;;;;;1.20;1.10;;;;;;;25.19;55.51;97405.91;5093390;28;20245;-29
2023/07/22 02:56:52;;;;;;;1.00;1.00;;;;;;;25.20;55.86;97407.66;5093226;28;20204;-27
2023/07/22 02:59:18;;;;;;;1.00;1.00;;;;;;;25.21;55.72;97414.53;5091918;28;20204;-28
2023/07/22 03:01:45;;;;;;;1.00;1.00;;;;;;;25.21;55.40;97416.22;5092540;28;20257;-28
2023/07/22 03:04:14;;;;;;;1.03;1.03;;;;;;;25.21;55.84;97411.09;5093328;28;20309;-27
2023/07/22 03:06:42;;;;;;;1.00;1.00;;;;;;;25.21;55.47;97419.66;5086390;28;20204;-27
2023/07/22 03:09:11;;;;;;;1.10;1.10;;;;;;;25.21;55.79;97421.38;5080839;28;20203;-28
2023/07/22 03:11:37;;;;;;;1.00;1.00;;;;;;;25.21;55.77;97422.25;5092679;28;20203;-28
2023/07/22 03:14:04;;;;;;;1.07;0.97;;;;;;;25.21;55.76;97421.38;5092697;28;20219;-27
2023/07/22 03:16:31;;;;;;;0.90;0.90;;;;;;;25.21;55.81;97426.50;5092795;28;20207;-27
2023/07/22 03:18:58;;;;;;;0.90;0.90;;;;;;;25.20;55.58;97429.94;5091053;28;20747;-28
2023/07/22 03:21:25;;;;;;;1.00;1.00;;;;;;;25.20;55.85;97435.09;5091970;28;20684;-28
2023/07/22 03:23:51;;;;;;;1.20;1.10;;;;;;;25.20;55.65;97433.38;5092111;28;20310;-31
2023/07/22 03:26:18;;;;;;;1.10;1.00;;;;;;;25.20;55.92;97430.81;5091641;28;20261;-27
2023/07/22 03:28:45;;;;;;;1.00;1.00;;;;;;;25.21;55.73;97439.38;5091887;28;20203;-34
2023/07/22 03:31:11;;;;;;;1.00;1.00;;;;;;;25.18;55.88;97429.91;5091446;28;20200;-27
2023/07/22 03:33:38;;;;;;;0.93;0.93;;;;;;;25.21;55.76;97436.81;5092200;28;20280;-27
2023/07/22 03:36:05;;;;;;;1.00;1.00;;;;;;;25.15;55.58;97429.88;5092016;28;20612;-27
2023/07/22 03:38:32;;;;;;;1.10;1.10;;;;;;;25.20;55.47;97448.81;5092356;28;20199;-28
2023/07/22 03:40:58;;;;;;;1.90;1.10;;;;;;;25.21;55.56;97442.81;5091990;28;20200;-34
2023/07/22 03:43:25;;;;;;;1.00;1.00;;;;;;;25.21;55.65;97449.66;5091558;28;20219;-32
2023/07/22 03:45:52;;;;;;;0.93;0.93;;;;;;;25.17;55.72;97439.34;5084895;28;20219;-29
2023/07/22 03:48:19;;;;;;;0.80;0.80;;;;;;;25.21;55.64;97441.94;5091216;28;20602;-36
2023/07/22 03:50:46;;;;;;;0.90;0.90;;;;;;;25.22;56.01;97446.28;5092538;28;20204;-27
2023/07/22 03:53:12;;;;;;;1.13;1.10;;;;;;;25.21;55.87;97447.09;5089807;28;20219;-28
2023/07/22 03:55:39;;;;;;;1.00;1.00;;;;;;;25.20;55.94;97453.97;5091946;28;20210;-27
2023/07/22 03:58:05;;;;;;;0.97;0.90;;;;;;;25.21;55.71;97455.69;5084861;28;20200;-27
2023/07/22 04:00:32;;;;;;;1.00;1.00;;;;;;;25.21;55.69;97460.81;5090041;28;20219;-27
2023/07/22 04:02:59;;;;;;;1.00;1.00;;;;;;;25.20;55.99;97466.81;5090255;28;20250;-28
2023/07/22 04:05:26;;;;;;;1.23;1.13;;;;;;;25.20;55.84;97464.25;5089344;28;20258;-28
2023/07/22 04:07:52;;;;;;;1.00;1.00;;;;;;;25.20;56.02;97471.97;5091246;28;20203;-28
2023/07/22 04:10:19;;;;;;;0.90;0.90;;;;;;;25.19;55.56;97452.22;5089223;28;20248;-28
2023/07/22 04:12:45;;;;;;;0.90;0.90;;;;;;;25.18;55.63;97447.94;5082912;28;20287;-28
2023/07/22 04:15:12;;;;;;;0.90;0.90;;;;;;;25.20;55.95;97450.50;5084073;28;20195;-28
2023/07/22 04:17:39;;;;;;;1.20;1.10;;;;;;;25.19;55.58;97448.81;5092214;28;20227;-28
2023/07/22 04:20:08;;;;;;;1.00;1.00;;;;;;;25.19;55.49;97454.78;5091619;28;20196;-27
2023/07/22 04:22:34;;;;;;;1.00;1.00;;;;;;;25.20;55.99;97456.53;5089742;28;20219;-27
2023/07/22 04:25:01;;;;;;;1.00;1.00;;;;;;;25.19;55.78;97452.22;5085149;28;20227;-28
2023/07/22 04:27:28;;;;;;;1.13;1.03;;;;;;;25.19;55.80;97447.06;5091868;28;20196;-29
2023/07/22 04:29:55;;;;;;;1.00;1.00;;;;;;;25.20;55.83;97443.69;5085088;28;20266;-28
2023/07/22 04:32:21;;;;;;;1.20;1.10;;;;;;;25.20;55.13;97448.81;5078976;28;20633;-28
2023/07/22 04:34:48;;;;;;;0.97;0.97;;;;;;;25.20;55.78;97455.66;5091300;28;20207;-28
2023/07/22 04:37:16;;;;;;;0.90;0.90;;;;;;;25.19;55.69;97454.78;5087382;28;20252;-27
2023/07/22 04:39:49;;;;;;;1.00;1.00;;;;;;;25.20;55.75;97458.22;5083377;28;20213;-30
2023/07/22 04:42:16;;;;;;;0.97;0.97;;;;;;;25.21;56.03;97457.38;5086530;28;20196;-27
2023/07/22 04:44:44;;;;;;;0.90;0.90;;;;;;;25.20;55.54;97463.38;5086493;28;20219;-28
2023/07/22 04:47:10;;;;;;;1.00;1.00;;;;;;;25.20;55.53;97459.09;5095517;28;20208;-31
2023/07/22 04:49:37;;;;;;;1.20;1.10;;;;;;;25.20;55.89;97460.81;5095476;28;20626;-27
2023/07/22 04:52:05;;;;;;;1.00;1.00;;;;;;;25.20;55.95;97466.81;5094840;28;20211;-28
2023/07/22 04:54:31;;;;;;;1.20;1.20;;;;;;;25.20;55.89;97466.81;5095729;28;20223;-29
2023/07/22 04:56:59;;;;;;;1.07;1.00;;;;;;;25.20;55.62;97466.81;5095473;28;20200;-27
2023/07/22 04:59:26;;;;;;;0.80;0.80;;;;;;;25.19;55.99;97467.66;5095410;28;20689;-28
2023/07/22 05:01:53;;;;;;;1.00;1.00;;;;;;;25.20;55.83;97465.94;5095175;28;20226;-27
2023/07/22 05:04:20;;;;;;;1.20;1.10;;;;;;;25.20;55.87;97469.41;5095116;28;20227;-28
2023/07/22 05:06:46;;;;;;;0.90;0.90;;;;;;;25.20;55.84;97469.41;5088818;28;20220;-27
2023/07/22 05:09:13;;;;;;;1.00;1.00;;;;;;;25.20;55.96;97465.94;5093879;28;20240;-28
2023/07/22 05:11:39;;;;;;;1.07;1.07;;;;;;;25.20;55.57;97469.41;5095132;28;20226;-27
2023/07/22 05:14:06;;;;;;;0.90;0.90;;;;;;;25.20;55.96;97471.09;5094604;28;20235;-29
2023/07/22 05:16:32;;;;;;;0.90;0.90;;;;;;;25.20;55.97;97477.13;5094834;28;20203;-28
2023/07/22 05:18:59;;;;;;;1.10;1.10;;;;;;;25.20;55.83;97477.13;5095334;28;20231;-28
2023/07/22 05:21:26;;;;;;;1.00;1.00;;;;;;;25.21;55.46;97480.53;5094171;28;20200;-27
2023/07/22 05:23:52;;;;;;;1.10;1.10;;;;;;;25.21;55.84;97472.81;5090984;28;20224;-28
2023/07/22 05:26:19;;;;;;;1.00;1.00;;;;;;;25.21;55.72;97483.09;5094606;28;20216;-30
2023/07/22 05:28:46;;;;;;;0.93;0.87;;;;;;;25.19;55.77;97480.50;5094920;28;20219;-28
2023/07/22 05:31:12;;;;;;;1.00;1.00;;;;;;;25.20;55.58;97479.69;5094154;28;20204;-28
2023/07/22 05:33:39;;;;;;;1.27;1.17;;;;;;;25.20;55.98;97478.81;5091209;28;20286;-27
2023/07/22 05:36:06;;;;;;;1.07;1.07;;;;;;;25.19;55.88;97475.38;5092238;28;20195;-27
2023/07/22 05:38:32;;;;;;;1.00;1.00;;;;;;;25.20;55.67;97479.69;5094652;28;20207;-27
2023/07/22 05:40:59;;;;;;;1.00;1.00;;;;;;;25.19;55.88;97477.09;5093770;28;20195;-28
2023/07/22 05:43:26;;;;;;;1.00;1.00;;;;;;;25.20;55.70;97489.09;5092917;28;20244;-27
2023/07/22 05:45:52;;;;;;;0.97;0.97;;;;;;;25.20;55.52;97483.97;5092602;28;20270;-28
2023/07/22 05:48:21;;;;;;;1.10;1.10;;;;;;;25.21;55.48;97490.81;5093615;28;20195;-28
2023/07/22 05:50:47;;;;;;;1.10;1.10;;;;;;;25.21;55.62;97490.81;5094484;28;20245;-28
2023/07/22 05:53:14;;;;;;;1.00;1.00;;;;;;;25.21;55.84;97496.84;5092873;28;20219;-28
2023/07/22 05:55:41;;;;;;;1.00;1.00;;;;;;;25.21;55.64;97495.97;5089555;28;20200;-27
2023/07/22 05:58:10;;;;;;;0.97;0.97;;;;;;;25.21;55.56;97493.38;5077934;28;20192;-32
2023/07/22 06:00:37;;;;;;;0.90;0.90;;;;;;;25.20;55.64;97492.53;5072432;28;20200;-27
2023/07/22 06:03:04;;;;;;;0.90;0.90;;;;;;;25.15;56.00;97491.59;5083042;28;20645;-30
2023/07/22 06:05:31;;;;;;;0.83;0.83;;;;;;;25.21;55.62;97498.53;5083107;28;20812;-28
2023/07/22 06:07:58;;;;;;;1.00;1.00;;;;;;;25.20;55.69;97489.97;5089305;28;20665;-27
2023/07/22 06:10:24;;;;;;;1.00;1.00;;;;;;;25.22;55.53;97495.16;5089025;28;20206;-27
2023/07/22 06:12:51;;;;;;;0.90;0.90;;;;;;;25.20;55.80;97497.69;5093388;28;20219;-27
2023/07/22 06:15:18;;;;;;;1.00;1.00;;;;;;;25.21;55.71;97493.38;5092460;28;20188;-28
2023/07/22 06:17:45;;;;;;;1.00;1.00;;;;;;;25.21;55.57;97496.84;5093745;28;20219;-27
2023/07/22 06:20:12;;;;;;;1.00;1.00;;;;;;;25.17;55.82;97493.34;5093123;28;20204;-27
2023/07/22 06:22:38;;;;;;;0.90;0.90;;;;;;;25.21;55.56;97501.97;5087126;28;20226;-28
2023/07/22 06:25:06;;;;;;;1.00;1.00;;;;;;;25.22;55.83;97500.28;5093880;28;20196;-27
2023/07/22 06:27:33;;;;;;;1.17;1.07;;;;;;;25.23;55.55;97499.44;5093857;28;20226;-28
2023/07/22 06:30:00;;;;;;;0.93;0.93;;;;;;;25.22;55.69;97508.00;5092179;28;20207;-28
2023/07/22 06:32:29;;;;;;;1.20;1.10;;;;;;;25.22;55.62;97511.41;5093290;28;20682;-28
2023/07/22 06:34:57;;;;;;;1.10;1.10;;;;;;;25.23;55.47;97507.16;5093106;28;20200;-28
2023/07/22 06:37:24;;;;;;;1.10;1.10;;;;;;;25.22;55.81;97505.44;5093852;28;20667;-28
2023/07/22 06:39:51;;;;;;;1.20;1.10;;;;;;;25.22;55.80;97516.56;5093019;28;20200;-29
2023/07/22 06:42:17;;;;;;;0.80;0.80;;;;;;;25.23;55.75;97509.72;5093089;28;20735;-28
2023/07/22 06:44:44;;;;;;;1.20;1.10;;;;;;;25.23;55.83;97509.72;5090969;28;20716;-28
2023/07/22 06:47:11;;;;;;;1.03;1.03;;;;;;;25.22;55.72;97508.84;5092715;28;20779;-27
2023/07/22 06:49:38;;;;;;;0.97;0.97;;;;;;;25.22;55.70;97506.28;5092970;28;20203;-28
2023/07/22 06:52:05;;;;;;;1.07;0.97;;;;;;;25.23;55.35;97512.28;5093282;28;20392;-27
2023/07/22 06:54:31;;;;;;;1.10;1.10;;;;;;;25.23;55.47;97514.88;5088543;28;20641;-29
2023/07/22 06:56:58;;;;;;;1.00;1.00;;;;;;;25.23;55.46;97515.75;5091433;28;20629;-28
2023/07/22 06:59:26;;;;;;;1.37;1.10;;;;;;;25.22;55.36;97514.00;5091616;28;20244;-27
2023/07/22 07:01:52;;;;;;;1.30;1.20;;;;;;;25.23;55.30;97509.72;5090477;28;20210;-35
2023/07/22 07:04:19;;;;;;;1.00;1.00;;;;;;;25.23;55.29;97512.28;5089332;28;20215;-27
2023/07/22 07:06:46;;;;;;;1.40;1.30;;;;;;;25.22;55.36;97510.56;5091462;28;20228;-27
2023/07/22 07:09:12;;;;;;;1.03;1.03;;;;;;;25.22;55.34;97511.41;5087939;28;20203;-27
2023/07/22 07:11:39;;;;;;;1.00;1.00;;;;;;;25.23;55.38;97517.44;5087411;28;20212;-29
2023/07/22 07:14:05;;;;;;;1.10;1.10;;;;;;;25.21;55.29;97514.84;5091097;28;20223;-27
2023/07/22 07:16:33;;;;;;;1.10;1.10;;;;;;;25.22;55.28;97524.28;5087250;28;20215;-27
2023/07/22 07:19:00;;;;;;;0.90;0.90;;;;;;;25.22;55.24;97518.28;5083340;28;20204;-28
2023/07/22 07:21:27;;;;;;;1.10;1.10;;;;;;;25.22;55.40;97519.13;5086490;28;20252;-27
2023/07/22 07:23:54;;;;;;;1.10;1.10;;;;;;;25.23;55.22;97522.59;5090544;28;20273;-28
2023/07/22 07:26:20;;;;;;;1.00;1.00;;;;;;;25.22;55.15;97515.72;5081707;28;20435;-28
2023/07/22 07:28:48;;;;;;;1.10;1.00;;;;;;;25.21;55.34;97520.00;5081343;28;20204;-28
2023/07/22 07:31:14;;;;;;;1.10;1.00;;;;;;;25.23;55.31;97520.00;5087127;28;20215;-27
2023/07/22 07:33:41;;;;;;;1.37;1.27;;;;;;;25.21;55.52;97525.13;5091063;28;20223;-28
2023/07/22 07:36:08;;;;;;;2.33;2.00;;;;;;;25.21;54.12;97516.53;5092415;28;20588;-28
2023/07/22 07:38:34;;;;;;;2.10;1.90;;;;;;;25.21;53.33;97519.09;5082203;28;20199;-27
2023/07/22 07:41:08;;;;;;;3.00;1.80;;;;;;;25.19;54.03;97521.66;5091915;28;20200;-27
2023/07/22 07:43:35;;;;;;;4.10;1.97;;;;;;;25.19;54.59;97525.97;5084506;28;20775;-27
2023/07/22 07:46:18;;;;;;;1.97;1.77;;;;;;;25.18;55.17;97525.09;5089439;28;20224;-27
2023/07/22 07:48:52;;;;;;;2.10;1.90;;;;;;;25.17;55.06;97525.06;5086264;28;20657;-27
2023/07/22 07:51:19;;;;;;;2.20;2.00;;;;;;;25.14;55.46;97526.75;5083321;28;20212;-27
2023/07/22 07:53:49;;;;;;;2.10;1.90;;;;;;;25.14;55.78;97521.59;5091137;28;20754;-28
2023/07/22 07:56:16;;;;;;;9.97;1.73;;;;;;;25.14;55.60;97520.75;5088622;28;20203;-27
2023/07/22 07:58:43;;;;;;;5.10;2.10;;;;;;;25.13;55.75;97525.88;5087134;28;20670;-28
2023/07/22 08:01:10;;;;;;;2.90;1.90;;;;;;;25.10;55.72;97522.41;5084656;28;20610;-27
2023/07/22 08:03:39;;;;;;;4.83;2.00;;;;;;;25.09;55.56;97518.09;5085222;28;20756;-27
2023/07/22 08:06:06;;;;;;;7.33;2.10;;;;;;;25.08;55.65;97526.66;5084849;28;20215;-26
2023/07/22 08:08:33;;;;;;;8.23;2.17;;;;;;;25.07;56.14;97531.75;5089499;28;20228;-28
2023/07/22 08:10:59;;;;;;;4.30;1.90;;;;;;;25.06;55.91;97530.03;5090708;28;20574;-27
2023/07/22 08:13:26;;;;;;;6.70;2.00;;;;;;;25.06;56.01;97524.91;5084628;28;20752;-29
2023/07/22 08:15:53;;;;;;;6.37;1.73;;;;;;;25.05;56.08;97526.59;5085731;28;20241;-27
2023/07/22 08:18:20;;;;;;;9.80;2.50;;;;;;;25.06;56.39;97527.47;5087486;28;20199;-27
2023/07/22 08:20:47;;;;;;;7.83;2.17;;;;;;;25.05;56.46;97526.59;5086351;28;20572;-28
2023/07/22 08:23:14;;;;;;;9.47;2.70;;;;;;;25.05;56.84;97525.75;5089271;28;20215;-32
2023/07/22 08:25:40;;;;;;;8.10;2.63;;;;;;;25.04;56.92;97527.44;5089788;28;20219;-28
2023/07/22 08:28:07;;;;;;;10.33;2.43;;;;;;;25.04;56.62;97526.56;5088232;28;20206;-27
2023/07/22 08:30:34;;;;;;;5.77;2.67;;;;;;;25.03;56.62;97525.72;5086381;28;20599;-27
2023/07/22 08:33:00;;;;;;;6.77;2.20;;;;;;;25.00;56.74;97519.66;5090813;28;20212;-27
2023/07/22 08:35:27;;;;;;;6.27;2.33;;;;;;;25.01;56.82;97516.25;5087549;28;20627;-27
2023/07/22 08:37:54;;;;;;;4.77;2.23;;;;;;;25.00;56.69;97517.97;5091180;28;20625;-28
2023/07/22 08:40:20;;;;;;;7.13;2.50;;;;;;;25.00;56.59;97517.97;5079947;28;20582;-27
2023/07/22 08:42:47;;;;;;;9.80;2.50;;;;;;;24.99;56.48;97518.78;5084471;28;20259;-27
2023/07/22 08:45:13;;;;;;;6.83;2.17;;;;;;;25.00;56.38;97517.09;5066928;28;20208;-30
2023/07/22 08:47:45;;;;;;;5.40;2.10;;;;;;;24.99;56.60;97515.38;5065557;28;20767;-27
2023/07/22 08:50:13;;;;;;;5.83;2.10;;;;;;;24.98;56.40;97506.78;5066548;28;20242;-37
2023/07/22 08:52:39;;;;;;;7.00;2.13;;;;;;;24.96;56.36;97502.47;5060843;28;20223;-28
2023/07/22 08:55:06;;;;;;;7.00;2.13;;;;;;;24.97;56.64;97507.63;5080537;28;20558;-29
2023/07/22 08:57:33;;;;;;;6.23;2.47;;;;;;;24.96;56.74;97507.63;5080757;28;20203;-30
2023/07/22 08:59:59;;;;;;;6.63;2.63;;;;;;;24.98;56.41;97503.34;5063613;28;20203;-29
2023/07/22 09:02:26;;;;;;;3.10;2.37;;;;;;;24.97;56.48;97512.78;5081476;28;20650;-39
2023/07/22 09:04:52;;;;;;;3.67;2.17;;;;;;;24.98;56.82;97508.47;5079851;28;20218;-28
2023/07/22 09:07:19;;;;;;;5.90;2.47;;;;;;;24.96;56.33;97505.88;5081017;28;20628;-28
2023/07/22 09:09:46;;;;;;;2.70;2.10;;;;;;;24.97;56.66;97506.75;5077298;28;20204;-28
2023/07/22 09:12:14;;;;;;;4.00;2.07;;;;;;;24.97;56.82;97510.22;5081942;28;20207;-28
2023/07/22 09:14:40;;;;;;;5.60;2.07;;;;;;;24.87;56.59;97495.47;5082807;28;20203;-28
2023/07/22 09:17:07;;;;;;;4.13;2.17;;;;;;;24.97;56.60;97502.50;5065566;28;20581;-32
2023/07/22 09:19:33;;;;;;;5.53;1.97;;;;;;;24.97;56.80;97499.06;5083434;28;20666;-33
2023/07/22 09:22:00;;;;;;;5.30;2.37;;;;;;;24.96;56.42;97495.59;5083179;28;20207;-27
2023/07/22 09:24:30;;;;;;;8.03;2.60;;;;;;;24.91;56.67;97494.69;5084361;28;20635;-30
2023/07/22 09:26:58;;;;;;;4.77;2.33;;;;;;;24.95;56.58;97496.44;5083482;28;20310;-29
2023/07/22 09:29:34;;;;;;;3.23;1.93;;;;;;;24.96;57.02;97495.59;5081413;28;20579;-28
2023/07/22 09:32:01;;;;;;;6.10;2.13;;;;;;;24.96;56.64;97495.59;5080772;28;20203;-32
2023/07/22 09:34:28;;;;;;;3.60;2.20;;;;;;;24.96;56.76;97497.31;5078969;28;20227;-28
2023/07/22 09:36:56;;;;;;;7.17;2.37;;;;;;;24.96;56.52;97489.63;5080493;28;20248;-28
2023/07/22 09:39:23;;;;;;;3.70;2.00;;;;;;;24.96;56.42;97494.75;5081531;28;20241;-28
2023/07/22 09:41:50;;;;;;;4.33;2.00;;;;;;;24.95;56.80;97488.75;5081674;28;20203;-31
2023/07/22 09:44:17;;;;;;;3.00;2.10;;;;;;;24.96;56.97;97487.03;5081090;28;20227;-35
2023/07/22 09:46:49;;;;;;;4.60;1.97;;;;;;;24.96;56.96;97487.03;5083623;28;20227;-27
2023/07/22 09:49:17;;;;;;;5.23;1.93;;;;;;;24.97;56.44;97481.03;5081954;28;20203;-28
2023/07/22 09:51:44;;;;;;;6.10;2.07;;;;;;;24.96;56.87;97472.47;5081753;28;21026;-29
2023/07/22 09:54:31;;;;;;;2.27;1.77;;;;;;;24.96;56.90;97476.75;5082959;28;20278;-28
2023/07/22 09:56:58;;;;;;;2.77;1.67;;;;;;;24.97;56.60;97478.47;5084306;28;20191;-28
2023/07/22 09:59:24;;;;;;;3.03;2.00;;;;;;;24.93;56.69;97471.56;5083717;28;20578;-28
2023/07/22 10:01:51;;;;;;;3.60;1.97;;;;;;;24.97;56.46;97481.03;5064556;28;20272;-28
2023/07/22 10:04:18;;;;;;;1.60;1.43;;;;;;;24.95;56.79;97483.59;5065223;28;20302;-28
2023/07/22 10:06:45;;;;;;;2.47;2.10;;;;;;;24.94;56.66;97479.31;5049187;28;20238;-29
2023/07/22 10:09:11;;;;;;;2.33;1.60;;;;;;;24.93;57.14;97476.72;5062099;28;20751;-28
2023/07/22 10:11:39;;;;;;;2.00;1.80;;;;;;;24.95;56.78;97473.31;5079595;28;20211;-28
2023/07/22 10:14:06;;;;;;;3.13;1.60;;;;;;;24.95;56.62;97472.44;5081252;28;20243;-28
2023/07/22 10:16:32;;;;;;;2.10;1.83;;;;;;;24.95;56.72;97481.03;5084037;28;20212;-27
2023/07/22 10:18:59;;;;;;;2.37;1.70;;;;;;;24.93;57.18;97472.41;5081950;28;20550;-27
2023/07/22 10:21:26;;;;;;;2.43;1.90;;;;;;;24.92;57.31;97457.84;5084789;28;20575;-28
2023/07/22 10:23:55;;;;;;;2.80;1.80;;;;;;;24.93;56.98;97464.69;5080817;28;20263;-28
2023/07/22 10:26:22;;;;;;;3.07;2.03;;;;;;;24.92;56.78;97457.84;5082218;28;20281;-28
2023/07/22 10:29:08;;;;;;;2.80;1.80;;;;;;;24.91;56.76;97468.09;5082028;28;20771;-31
2023/07/22 10:31:35;;;;;;;1.53;1.43;;;;;;;24.92;57.16;97462.09;5071065;28;20318;-30
2023/07/22 10:34:01;;;;;;;2.63;1.70;;;;;;;24.91;57.07;97457.81;5085287;28;20292;-29
2023/07/22 10:36:29;;;;;;;2.30;1.80;;;;;;;24.91;56.76;97462.97;5079758;28;20280;-26
2023/07/22 10:38:57;;;;;;;3.57;1.70;;;;;;;24.90;56.84;97456.94;5085613;28;20622;-27
2023/07/22 10:41:26;;;;;;;3.30;1.80;;;;;;;24.91;57.04;97444.97;5084208;28;20254;-27
2023/07/22 10:43:55;;;;;;;2.33;1.80;;;;;;;24.91;56.75;97450.09;5087164;28;20289;-28
2023/07/22 10:46:35;;;;;;;4.57;1.93;;;;;;;24.92;57.29;97450.13;5085303;28;20219;-28
2023/07/22 10:49:12;;;;;;;2.97;1.77;;;;;;;24.92;57.33;97449.25;5081299;28;20195;-32
2023/07/22 10:51:39;;;;;;;1.90;1.60;;;;;;;24.90;56.81;97440.66;5088170;28;20282;-27
2023/07/22 10:54:12;;;;;;;2.60;1.90;;;;;;;24.91;57.17;97440.69;5078101;28;20276;-28
2023/07/22 10:56:43;;;;;;;3.73;2.40;;;;;;;24.86;57.03;97424.31;5083355;28;20677;-28
2023/07/22 10:59:10;;;;;;;3.90;2.50;;;;;;;24.90;56.95;97438.94;5091245;28;20203;-27
2023/07/22 11:01:38;;;;;;;3.67;2.60;;;;;;;24.91;56.78;97445.84;5087614;28;20212;-27
2023/07/22 11:04:13;;;;;;;7.47;3.40;;;;;;;24.91;57.09;97432.97;5081791;28;20254;-28
2023/07/22 11:06:51;;;;;;;8.97;4.63;;;;;;;24.90;57.11;97436.38;5085799;28;20242;-28
2023/07/22 11:09:33;;;;;;;10.80;4.73;;;;;;;24.90;57.04;97432.97;5080986;28;20200;-27
2023/07/22 11:12:06;;;;;;;10.47;5.20;;;;;;;24.90;57.25;97428.66;5081098;28;20283;-28
2023/07/22 11:14:50;;;;;;;12.40;6.00;;;;;;;24.90;56.95;97430.38;5088959;28;20223;-28
2023/07/22 11:17:17;;;;;;;15.53;7.03;;;;;;;24.89;56.94;97426.94;5081773;28;20188;-28
2023/07/22 11:19:44;;;;;;;14.90;7.77;;;;;;;24.90;57.19;97420.94;5088092;28;20195;-27
2023/07/22 11:22:12;;;;;;;18.57;8.20;;;;;;;24.91;57.17;97419.25;5091598;28;20715;-29
2023/07/22 11:24:38;;;;;;;19.13;8.83;;;;;;;24.91;56.89;97415.00;5084781;28;20205;-27
2023/07/22 11:27:08;;;;;;;14.87;8.27;;;;;;;24.92;56.84;97418.41;5078600;28;20216;-28
2023/07/22 11:29:35;;;;;;;19.03;9.37;;;;;;;24.92;56.78;97419.28;5091581;28;20218;-27
2023/07/22 11:32:02;;;;;;;18.50;8.53;;;;;;;24.93;56.99;97415.84;5089731;28;20207;-30
2023/07/22 11:34:30;;;;;;;15.53;7.83;;;;;;;24.95;56.90;97406.47;5089363;28;20222;-28